Time;durP1;ratioP1;P1;durP2;ratioP2;P2;SDS_P1;SDS_P2;PMS_P1;PMS_P2;Temp;Humidity;BMP_temperature;BMP_pressure;BME280_temperature;BME280_humidity;BME280_pressure;Samples;Min_cycle;Max_cycle;Signal;HPM_P1;HPM_P2
2022/04/25 00:01:14;;;;;;;8.93;6.30;;;;;;;;;;5032765;28;20328;-73
2022/04/25 00:03:40;;;;;;;8.47;5.93;;;;;;;;;;5033215;28;20225;-74
2022/04/25 00:06:06;;;;;;;11.63;7.80;;;;;;;;;;5032895;28;20397;-76
2022/04/25 00:08:32;;;;;;;9.87;8.90;;;;;;;;;;5033112;28;20409;-76
2022/04/25 00:10:58;;;;;;;10.03;9.03;;;;;;;;;;5032450;28;20424;-74
2022/04/25 00:13:24;;;;;;;12.10;10.03;;;;;;;;;;5033009;28;20950;-74
2022/04/25 00:15:52;;;;;;;11.00;9.90;;;;;;;;;;5032990;28;20420;-74
2022/04/25 00:18:18;;;;;;;11.57;10.23;;;;;;;;;;5032750;28;20476;-74
2022/04/25 00:20:44;;;;;;;12.33;11.00;;;;;;;;;;5032648;28;20414;-75
2022/04/25 00:23:10;;;;;;;12.40;11.10;;;;;;;;;;5032817;28;20432;-73
2022/04/25 00:25:36;;;;;;;11.40;10.20;;;;;;;;;;5032848;28;20410;-76
2022/04/25 00:28:03;;;;;;;7.83;7.03;;;;;;;;;;5032691;28;20418;-73
2022/04/25 00:30:29;;;;;;;9.20;7.00;;;;;;;;;;5032503;28;20438;-73
2022/04/25 00:32:55;;;;;;;7.70;7.00;;;;;;;;;;5032768;28;20906;-74
2022/04/25 00:35:21;;;;;;;9.17;7.00;;;;;;;;;;5032746;28;20412;-74
2022/04/25 00:37:47;;;;;;;7.40;6.70;;;;;;;;;;5032684;28;20475;-75
2022/04/25 00:40:15;;;;;;;8.37;7.57;;;;;;;;;;5032647;28;20409;-74
2022/04/25 00:42:41;;;;;;;8.30;7.50;;;;;;;;;;5032621;28;20507;-74
2022/04/25 00:45:09;;;;;;;10.53;9.27;;;;;;;;;;5032734;28;20458;-73
2022/04/25 00:47:35;;;;;;;13.53;10.63;;;;;;;;;;5032643;28;20536;-77
2022/04/25 00:50:01;;;;;;;11.27;10.27;;;;;;;;;;5014935;28;20433;-74
2022/04/25 00:52:27;;;;;;;12.65;11.23;;;;;;;;;;5032178;28;20196;-74
2022/04/25 00:54:53;;;;;;;12.90;11.70;;;;;;;;;;5015052;28;20611;-77
2022/04/25 00:57:19;;;;;;;12.50;11.30;;;;;;;;;;5032670;28;20504;-76
2022/04/25 00:59:45;;;;;;;12.83;11.53;;;;;;;;;;5032496;28;20555;-78
2022/04/25 01:02:11;;;;;;;15.85;13.40;;;;;;;;;;5032164;28;20485;-76
2022/04/25 01:04:37;;;;;;;15.33;13.90;;;;;;;;;;5032578;28;20187;-78
2022/04/25 01:07:03;;;;;;;15.05;13.32;;;;;;;;;;5017203;28;20414;-75
2022/04/25 01:09:29;;;;;;;16.07;14.47;;;;;;;;;;5036286;28;20178;-75
2022/04/25 01:11:58;;;;;;;17.65;14.75;;;;;;;;;;5035651;28;20455;-74
2022/04/25 01:14:24;;;;;;;16.73;15.05;;;;;;;;;;5035949;28;20231;-76
2022/04/25 01:16:51;;;;;;;15.85;14.15;;;;;;;;;;5036048;28;20197;-74
2022/04/25 01:19:17;;;;;;;12.73;11.20;;;;;;;;;;5036054;28;20204;-72
2022/04/25 01:21:56;;;;;;;13.18;9.68;;;;;;;;;;5017733;28;20209;-77
2022/04/25 01:27:17;;;;;;;14.27;10.93;;;;;;;;;;5036141;28;20184;-75
2022/04/25 01:29:44;;;;;;;11.70;10.35;;;;;;;;;;5035739;28;20186;-72
2022/04/25 01:32:11;;;;;;;11.90;10.70;;;;;;;;;;5035236;28;20683;-73
2022/04/25 01:34:38;;;;;;;11.80;10.60;;;;;;;;;;5035570;28;20190;-74
2022/04/25 01:37:13;;;;;;;11.40;10.20;;;;;;;;;;5035480;28;20261;-75
2022/04/25 01:39:40;;;;;;;13.32;9.55;;;;;;;;;;5035611;28;20241;-73
2022/04/25 01:42:07;;;;;;;10.82;9.70;;;;;;;;;;5035123;28;20218;-76
2022/04/25 01:44:34;;;;;;;11.40;10.18;;;;;;;;;;5035545;28;20235;-73
2022/04/25 01:47:00;;;;;;;11.23;9.82;;;;;;;;;;5035365;28;20569;-72
2022/04/25 01:49:26;;;;;;;10.20;9.20;;;;;;;;;;5035390;28;20237;-75
2022/04/25 01:51:52;;;;;;;10.00;9.00;;;;;;;;;;5034942;28;20186;-74
2022/04/25 01:54:28;;;;;;;9.05;8.18;;;;;;;;;;5017830;28;20189;-76
2022/04/25 01:56:54;;;;;;;11.65;9.55;;;;;;;;;;5017904;28;20180;-76
2022/04/25 01:59:20;;;;;;;10.02;9.00;;;;;;;;;;5017603;28;20222;-76
2022/04/25 02:01:46;;;;;;;10.90;9.80;;;;;;;;;;5034845;28;20639;-75
2022/04/25 02:04:12;;;;;;;11.50;9.95;;;;;;;;;;5035202;28;20542;-75
2022/04/25 02:06:39;;;;;;;10.32;9.23;;;;;;;;;;5035187;28;20254;-73
2022/04/25 02:09:05;;;;;;;11.52;10.40;;;;;;;;;;5035034;28;20747;-75
2022/04/25 02:11:31;;;;;;;11.23;9.55;;;;;;;;;;5034475;28;20290;-75
2022/04/25 02:13:57;;;;;;;12.88;10.93;;;;;;;;;;5034972;28;20589;-74
2022/04/25 02:16:24;;;;;;;12.00;10.20;;;;;;;;;;5034807;28;20228;-75
2022/04/25 02:18:50;;;;;;;13.15;10.57;;;;;;;;;;5033827;28;20206;-74
2022/04/25 02:21:17;;;;;;;11.88;10.68;;;;;;;;;;5034290;28;20198;-73
2022/04/25 02:23:43;;;;;;;15.60;11.40;;;;;;;;;;5034659;28;20233;-73
2022/04/25 02:26:09;;;;;;;12.30;11.10;;;;;;;;;;5034638;28;20180;-74
2022/04/25 02:28:36;;;;;;;12.98;11.35;;;;;;;;;;5034619;28;20236;-76
2022/04/25 02:31:02;;;;;;;15.43;12.77;;;;;;;;;;5016567;28;20230;-71
2022/04/25 02:33:28;;;;;;;14.40;13.00;;;;;;;;;;5016920;28;20179;-76
2022/04/25 02:35:54;;;;;;;16.47;13.50;;;;;;;;;;5034704;28;20555;-75
2022/04/25 02:38:20;;;;;;;15.25;13.60;;;;;;;;;;5034328;28;20478;-72
2022/04/25 02:41:04;;;;;;;13.35;11.95;;;;;;;;;;5034061;28;20180;-73
2022/04/25 02:43:30;;;;;;;14.15;11.57;;;;;;;;;;5034271;28;20194;-74
2022/04/25 02:45:56;;;;;;;15.20;12.30;;;;;;;;;;5034547;28;20205;-74
2022/04/25 02:48:22;;;;;;;12.27;10.83;;;;;;;;;;5034386;28;20209;-73
2022/04/25 02:50:48;;;;;;;10.97;9.57;;;;;;;;;;5034002;28;20481;-74
2022/04/25 02:53:14;;;;;;;11.40;10.13;;;;;;;;;;5034007;28;20506;-75
2022/04/25 02:55:40;;;;;;;10.60;9.50;;;;;;;;;;5034078;28;20179;-75
2022/04/25 02:58:06;;;;;;;13.10;11.17;;;;;;;;;;5034169;28;20455;-75
2022/04/25 03:00:32;;;;;;;12.35;10.70;;;;;;;;;;5033613;28;20502;-72
2022/04/25 03:02:58;;;;;;;10.63;9.48;;;;;;;;;;5033885;28;20190;-75
2022/04/25 03:05:24;;;;;;;11.60;10.50;;;;;;;;;;5033776;28;20178;-74
2022/04/25 03:07:50;;;;;;;11.18;9.70;;;;;;;;;;5033922;28;20469;-73
2022/04/25 03:10:16;;;;;;;11.00;9.90;;;;;;;;;;5033831;28;20258;-72
2022/04/25 03:12:42;;;;;;;11.70;10.50;;;;;;;;;;5033730;28;20462;-75
2022/04/25 03:15:08;;;;;;;13.50;10.20;;;;;;;;;;5033783;28;20418;-76
2022/04/25 03:17:34;;;;;;;13.13;11.93;;;;;;;;;;5033556;28;20438;-71
2022/04/25 03:20:00;;;;;;;13.50;12.10;;;;;;;;;;5033631;28;20714;-76
2022/04/25 03:22:26;;;;;;;13.80;11.70;;;;;;;;;;5033144;28;20431;-75
2022/04/25 03:24:52;;;;;;;14.15;12.73;;;;;;;;;;5033764;28;20426;-74
2022/04/25 03:27:18;;;;;;;14.38;12.88;;;;;;;;;;5033459;28;20181;-72
2022/04/25 03:29:44;;;;;;;14.47;13.07;;;;;;;;;;5033190;28;20273;-73
2022/04/25 03:32:10;;;;;;;15.47;12.53;;;;;;;;;;5015604;28;20498;-72
2022/04/25 03:34:37;;;;;;;16.00;14.40;;;;;;;;;;5033347;28;20433;-74
2022/04/25 03:37:03;;;;;;;14.40;12.90;;;;;;;;;;5015649;28;20277;-74
2022/04/25 03:39:29;;;;;;;14.85;13.00;;;;;;;;;;5033192;28;20286;-73
2022/04/25 03:41:56;;;;;;;16.73;15.02;;;;;;;;;;5015354;28;20202;-75
2022/04/25 03:44:22;;;;;;;16.55;14.75;;;;;;;;;;5033385;28;20171;-75
2022/04/25 03:46:48;;;;;;;16.08;14.38;;;;;;;;;;5015665;28;20301;-75
2022/04/25 03:49:14;;;;;;;16.55;14.10;;;;;;;;;;5033415;28;20196;-73
2022/04/25 03:51:41;;;;;;;16.27;13.57;;;;;;;;;;5032697;28;20202;-74
2022/04/25 03:54:07;;;;;;;17.40;14.07;;;;;;;;;;5033237;28;20184;-72
2022/04/25 03:59:17;;;;;;;16.27;14.55;;;;;;;;;;5033399;28;21174;-75
2022/04/25 04:01:43;;;;;;;16.33;14.50;;;;;;;;;;5015460;28;20201;-76
2022/04/25 04:04:09;;;;;;;17.77;15.03;;;;;;;;;;5033087;28;20180;-76
2022/04/25 04:06:37;;;;;;;17.83;15.05;;;;;;;;;;5015850;28;20413;-75
2022/04/25 04:09:44;;;;;;;15.80;14.30;;;;;;;;;;5033211;28;20174;-76
2022/04/25 04:11:49;;;;;;;15.70;14.00;;;;;;;;;;5032103;28;20248;-75
2022/04/25 04:14:15;;;;;;;21.10;15.80;;;;;;;;;;5032199;28;20183;-74
2022/04/25 04:16:42;;;;;;;21.13;16.40;;;;;;;;;;5032240;28;20451;-75
2022/04/25 04:19:08;;;;;;;20.27;16.48;;;;;;;;;;5032113;28;20520;-74
2022/04/25 04:21:34;;;;;;;21.30;16.75;;;;;;;;;;5031704;28;20199;-75
2022/04/25 04:24:01;;;;;;;18.80;16.00;;;;;;;;;;5014591;28;20282;-75
2022/04/25 04:26:28;;;;;;;18.58;16.45;;;;;;;;;;5032051;28;20405;-74
2022/04/25 04:28:56;;;;;;;19.48;15.85;;;;;;;;;;5032057;28;20616;-73
2022/04/25 04:31:22;;;;;;;20.13;16.75;;;;;;;;;;5031713;28;20188;-74
2022/04/25 04:33:48;;;;;;;21.15;17.38;;;;;;;;;;5014479;28;20190;-74
2022/04/25 04:36:21;;;;;;;20.70;17.00;;;;;;;;;;5031670;28;20192;-74
2022/04/25 04:38:47;;;;;;;19.45;16.98;;;;;;;;;;5031868;28;20556;-72
2022/04/25 04:41:13;;;;;;;19.65;17.55;;;;;;;;;;5032028;28;20181;-73
2022/04/25 04:43:39;;;;;;;19.17;17.03;;;;;;;;;;5017530;28;20181;-74
2022/04/25 04:46:05;;;;;;;19.07;16.73;;;;;;;;;;5035182;28;20422;-75
2022/04/25 04:48:31;;;;;;;19.10;16.45;;;;;;;;;;5035088;28;20421;-75
2022/04/25 04:50:58;;;;;;;20.10;16.73;;;;;;;;;;5034895;28;20186;-73
2022/04/25 04:53:24;;;;;;;19.48;17.38;;;;;;;;;;5035311;28;20415;-74
2022/04/25 04:55:51;;;;;;;19.77;17.70;;;;;;;;;;5035384;28;20540;-73
2022/04/25 04:58:19;;;;;;;21.73;19.30;;;;;;;;;;5035098;28;20201;-74
2022/04/25 05:00:46;;;;;;;26.02;19.50;;;;;;;;;;5034637;28;20173;-74
2022/04/25 05:03:15;;;;;;;25.95;20.70;;;;;;;;;;5034862;28;20316;-75
2022/04/25 05:05:42;;;;;;;22.25;19.85;;;;;;;;;;5035081;28;20261;-74
2022/04/25 05:08:08;;;;;;;25.05;19.77;;;;;;;;;;5034960;28;20184;-73
2022/04/25 05:10:34;;;;;;;23.98;18.98;;;;;;;;;;5034560;28;20242;-75
2022/04/25 05:13:00;;;;;;;22.63;19.47;;;;;;;;;;5015886;28;128733;-73
2022/04/25 05:15:26;;;;;;;24.30;20.73;;;;;;;;;;5034007;28;20420;-74
2022/04/25 05:17:55;;;;;;;26.25;19.10;;;;;;;;;;5035849;28;20891;-77
2022/04/25 05:20:25;;;;;;;23.95;20.05;;;;;;;;;;5035677;28;20248;-73
2022/04/25 05:22:52;;;;;;;26.73;19.73;;;;;;;;;;5036151;28;20564;-73
2022/04/25 05:25:19;;;;;;;25.40;20.48;;;;;;;;;;5035923;28;20308;-76
2022/04/25 05:27:48;;;;;;;24.02;19.60;;;;;;;;;;5035745;28;20175;-72
2022/04/25 05:30:15;;;;;;;27.75;20.90;;;;;;;;;;5035405;28;20224;-74
2022/04/25 05:32:43;;;;;;;24.23;20.02;;;;;;;;;;5035434;28;20203;-74
2022/04/25 05:35:09;;;;;;;22.80;20.02;;;;;;;;;;5035760;28;20170;-72
2022/04/25 05:37:36;;;;;;;25.95;20.17;;;;;;;;;;5035371;28;20181;-72
2022/04/25 05:40:02;;;;;;;27.13;20.50;;;;;;;;;;5017994;28;20209;-73
2022/04/25 05:42:28;;;;;;;24.95;21.13;;;;;;;;;;5035413;28;20694;-72
2022/04/25 05:44:54;;;;;;;25.52;20.50;;;;;;;;;;5035668;28;20599;-73
2022/04/25 05:47:20;;;;;;;27.20;21.23;;;;;;;;;;5035409;28;20196;-75
2022/04/25 05:52:31;;;;;;;25.88;20.63;;;;;;;;;;5034974;28;20954;-76
2022/04/25 05:54:57;;;;;;;25.27;20.87;;;;;;;;;;5017432;28;20555;-77
2022/04/25 05:57:23;;;;;;;25.60;21.20;;;;;;;;;;5017398;28;20434;-76
2022/04/25 05:59:49;;;;;;;27.83;21.20;;;;;;;;;;5034979;28;20256;-76
2022/04/25 06:02:17;;;;;;;25.80;22.03;;;;;;;;;;5034844;28;20436;-74
2022/04/25 06:04:43;;;;;;;26.20;20.17;;;;;;;;;;5035393;28;20465;-73
2022/04/25 06:07:09;;;;;;;22.20;18.80;;;;;;;;;;5035351;28;20213;-76
2022/04/25 06:09:35;;;;;;;21.67;17.83;;;;;;;;;;5035292;28;20178;-75
2022/04/25 06:12:04;;;;;;;22.57;20.17;;;;;;;;;;5034441;28;20218;-76
2022/04/25 06:14:34;;;;;;;24.65;19.17;;;;;;;;;;5035002;28;20413;-75
2022/04/25 06:17:00;;;;;;;21.25;18.67;;;;;;;;;;5034815;28;20185;-74
2022/04/25 06:19:26;;;;;;;19.90;17.33;;;;;;;;;;5034803;28;20214;-73
2022/04/25 06:21:52;;;;;;;24.27;20.73;;;;;;;;;;5034488;28;20898;-73
2022/04/25 06:24:19;;;;;;;25.27;19.07;;;;;;;;;;5016853;28;20185;-73
2022/04/25 06:26:49;;;;;;;17.93;16.07;;;;;;;;;;5034482;28;20409;-74
2022/04/25 06:29:15;;;;;;;18.75;16.60;;;;;;;;;;5034702;28;20414;-74
2022/04/25 06:31:42;;;;;;;17.20;15.20;;;;;;;;;;5034156;28;20285;-75
2022/04/25 06:34:08;;;;;;;19.85;15.50;;;;;;;;;;5034625;28;20757;-74
2022/04/25 06:36:36;;;;;;;16.65;14.85;;;;;;;;;;5017039;28;20546;-74
2022/04/25 06:39:03;;;;;;;17.13;14.90;;;;;;;;;;5034155;28;20206;-75
2022/04/25 06:41:30;;;;;;;17.10;15.30;;;;;;;;;;5034011;28;20417;-75
2022/04/25 06:43:58;;;;;;;16.05;14.35;;;;;;;;;;5034401;28;20410;-73
2022/04/25 06:46:24;;;;;;;16.70;14.70;;;;;;;;;;5034316;28;20231;-74
2022/04/25 06:51:35;;;;;;;16.13;14.47;;;;;;;;;;5034436;28;20437;-75
2022/04/25 06:54:01;;;;;;;17.93;15.47;;;;;;;;;;5034370;28;20398;-76
2022/04/25 06:56:27;;;;;;;18.37;15.00;;;;;;;;;;5034118;28;20775;-73
2022/04/25 06:58:53;;;;;;;17.67;14.80;;;;;;;;;;5033941;28;20517;-75
2022/04/25 07:01:19;;;;;;;17.73;15.37;;;;;;;;;;5033589;28;20429;-75
2022/04/25 07:03:45;;;;;;;16.77;14.90;;;;;;;;;;5033741;28;20406;-75
2022/04/25 07:06:11;;;;;;;17.97;15.23;;;;;;;;;;5033705;28;20500;-73
2022/04/25 07:08:37;;;;;;;18.23;14.23;;;;;;;;;;5033988;28;20405;-73
2022/04/25 07:11:03;;;;;;;17.70;14.60;;;;;;;;;;5033452;28;20494;-75
2022/04/25 07:13:29;;;;;;;17.10;15.30;;;;;;;;;;5033662;28;20437;-74
2022/04/25 07:15:55;;;;;;;15.50;13.90;;;;;;;;;;5033765;28;20417;-73
2022/04/25 07:18:21;;;;;;;16.20;14.47;;;;;;;;;;5033842;28;20507;-74
2022/04/25 07:20:47;;;;;;;16.77;13.47;;;;;;;;;;5033431;28;20828;-76
2022/04/25 07:28:57;;;;;;;15.27;13.70;;;;;;;;;;5033968;28;20438;-74
2022/04/25 07:31:23;;;;;;;16.50;14.77;;;;;;;;;;5015678;28;20976;-74
2022/04/25 07:33:49;;;;;;;16.40;14.70;;;;;;;;;;5033380;28;20424;-73
2022/04/25 07:36:17;;;;;;;20.33;16.60;;;;;;;;;;5033400;28;20425;-73
2022/04/25 07:38:44;;;;;;;18.50;15.83;;;;;;;;;;5033273;28;20791;-72
2022/04/25 07:41:10;;;;;;;17.03;15.27;;;;;;;;;;5033084;28;20911;-74
2022/04/25 07:43:36;;;;;;;18.63;15.67;;;;;;;;;;5033217;28;20409;-74
2022/04/25 07:46:02;;;;;;;16.53;14.67;;;;;;;;;;5033379;28;20891;-72
2022/04/25 07:48:28;;;;;;;17.30;15.50;;;;;;;;;;5033485;28;20902;-74
2022/04/25 07:50:54;;;;;;;15.97;14.33;;;;;;;;;;5015420;28;20539;-72
2022/04/25 07:53:20;;;;;;;18.53;16.60;;;;;;;;;;5033112;28;20566;-72
2022/04/25 07:55:46;;;;;;;18.47;16.40;;;;;;;;;;5033193;28;20418;-75
2022/04/25 07:58:12;;;;;;;18.10;16.20;;;;;;;;;;5033136;28;20825;-73
2022/04/25 08:00:41;;;;;;;16.70;14.97;;;;;;;;;;5032697;28;20410;-74
2022/04/25 08:03:08;;;;;;;16.60;14.97;;;;;;;;;;5033019;28;20965;-75
2022/04/25 08:05:34;;;;;;;19.27;17.37;;;;;;;;;;5033056;28;20413;-74
2022/04/25 08:08:00;;;;;;;15.70;13.93;;;;;;;;;;5033025;28;20504;-74
2022/04/25 08:10:26;;;;;;;17.40;15.70;;;;;;;;;;5032856;28;20500;-75
2022/04/25 08:18:21;;;;;;;15.93;14.30;;;;;;;;;;5037322;28;20519;-74
2022/04/25 08:20:47;;;;;;;17.07;14.03;;;;;;;;;;5033768;28;20385;-74
2022/04/25 08:23:14;;;;;;;14.80;13.13;;;;;;;;;;5020804;28;20438;-76
2022/04/25 08:25:41;;;;;;;15.83;13.40;;;;;;;;;;5017083;28;20385;-73
2022/04/25 08:28:07;;;;;;;17.50;15.50;;;;;;;;;;5017750;28;20398;-76
2022/04/25 08:30:33;;;;;;;16.40;14.80;;;;;;;;;;5025520;28;20393;-75
2022/04/25 08:33:00;;;;;;;16.50;15.00;;;;;;;;;;5016918;28;20512;-76
2022/04/25 08:35:27;;;;;;;15.43;13.93;;;;;;;;;;4999429;28;20403;-73
2022/04/25 08:37:56;;;;;;;15.60;13.60;;;;;;;;;;5016689;28;20417;-72
2022/04/25 08:40:22;;;;;;;15.63;14.13;;;;;;;;;;5016627;28;20544;-72
2022/04/25 08:42:48;;;;;;;15.40;13.90;;;;;;;;;;5016751;28;20437;-74
2022/04/25 08:45:15;;;;;;;16.60;15.07;;;;;;;;;;5016833;28;20782;-76
2022/04/25 08:47:47;;;;;;;15.73;14.17;;;;;;;;;;5016721;28;20418;-76
2022/04/25 08:50:14;;;;;;;16.30;13.83;;;;;;;;;;5016253;28;20915;-74
2022/04/25 08:52:41;;;;;;;15.63;13.70;;;;;;;;;;5016664;28;20411;-74
2022/04/25 08:55:07;;;;;;;14.60;13.30;;;;;;;;;;5016653;28;20462;-73
2022/04/25 08:57:35;;;;;;;14.90;13.50;;;;;;;;;;4999327;28;20828;-74
2022/04/25 09:00:04;;;;;;;13.60;12.20;;;;;;;;;;5016659;28;20539;-74
2022/04/25 09:02:30;;;;;;;14.67;13.10;;;;;;;;;;5016369;28;20429;-77
2022/04/25 09:04:56;;;;;;;14.33;12.80;;;;;;;;;;5016460;28;20377;-75
2022/04/25 09:07:23;;;;;;;13.53;12.33;;;;;;;;;;5016660;28;20863;-72
2022/04/25 09:09:49;;;;;;;13.30;12.00;;;;;;;;;;5016385;28;20414;-75
2022/04/25 09:12:17;;;;;;;13.30;12.00;;;;;;;;;;5015671;28;20461;-74
2022/04/25 09:14:44;;;;;;;12.50;11.20;;;;;;;;;;5016404;28;20385;-74
2022/04/25 09:17:10;;;;;;;11.60;10.60;;;;;;;;;;5016304;28;20389;-76
2022/04/25 09:19:37;;;;;;;12.03;10.93;;;;;;;;;;4998469;28;20470;-74
2022/04/25 09:22:04;;;;;;;11.20;10.20;;;;;;;;;;5015716;28;20407;-74
2022/04/25 09:24:34;;;;;;;11.67;10.63;;;;;;;;;;5015900;28;20385;-74
2022/04/25 09:27:08;;;;;;;10.57;9.67;;;;;;;;;;5015942;28;20389;-74
2022/04/25 09:29:35;;;;;;;9.83;8.83;;;;;;;;;;5016189;28;20396;-72
2022/04/25 09:32:02;;;;;;;10.03;9.10;;;;;;;;;;5018034;28;20462;-75
2022/04/25 09:37:13;;;;;;;9.77;8.77;;;;;;;;;;5025902;28;20918;-75
2022/04/25 09:39:40;;;;;;;9.40;7.43;;;;;;;;;;5024159;28;20435;-74
2022/04/25 09:42:06;;;;;;;11.30;7.20;;;;;;;;;;5023073;28;20441;-74
2022/04/25 09:44:52;;;;;;;7.33;6.20;;;;;;;;;;5005470;28;20402;-74
2022/04/25 09:47:45;;;;;;;6.33;5.77;;;;;;;;;;5020983;28;20414;-74
2022/04/25 09:50:14;;;;;;;7.40;6.70;;;;;;;;;;5021662;28;20421;-73
2022/04/25 09:52:54;;;;;;;7.83;7.13;;;;;;;;;;5023249;28;20492;-76
2022/04/25 09:55:21;;;;;;;5.50;5.00;;;;;;;;;;5015702;28;20423;-74
2022/04/25 09:57:49;;;;;;;6.00;5.30;;;;;;;;;;5015549;28;20436;-77
2022/04/25 10:00:32;;;;;;;7.70;7.00;;;;;;;;;;5015089;28;20446;-73
2022/04/25 10:02:59;;;;;;;9.17;7.77;;;;;;;;;;5015419;28;20412;-74
2022/04/25 10:05:36;;;;;;;7.00;6.30;;;;;;;;;;5015347;28;20811;-72
2022/04/25 10:08:02;;;;;;;8.27;7.30;;;;;;;;;;5020604;28;20391;-74
2022/04/25 10:10:28;;;;;;;7.60;6.90;;;;;;;;;;5025867;28;20497;-76
2022/04/25 10:12:55;;;;;;;6.87;6.37;;;;;;;;;;5034843;28;20420;-74
2022/04/25 10:15:22;;;;;;;7.20;6.50;;;;;;;;;;5035207;28;20441;-73
2022/04/25 10:17:48;;;;;;;6.90;6.30;;;;;;;;;;5035112;28;20416;-75
2022/04/25 10:20:15;;;;;;;6.20;5.60;;;;;;;;;;5034524;28;20926;-76
2022/04/25 10:22:42;;;;;;;6.63;6.03;;;;;;;;;;5034690;28;20439;-77
2022/04/25 10:25:08;;;;;;;7.00;6.40;;;;;;;;;;5034900;28;20437;-78
2022/04/25 10:27:36;;;;;;;6.10;5.47;;;;;;;;;;5034830;28;20413;-74
2022/04/25 10:30:08;;;;;;;6.30;5.70;;;;;;;;;;5034789;28;20445;-72
2022/04/25 10:32:34;;;;;;;6.87;6.23;;;;;;;;;;5016647;28;20528;-75
2022/04/25 10:35:00;;;;;;;6.33;4.90;;;;;;;;;;5034503;28;20974;-74
2022/04/25 10:37:29;;;;;;;5.37;4.90;;;;;;;;;;5034391;28;20426;-72
2022/04/25 10:39:56;;;;;;;6.30;5.80;;;;;;;;;;5033505;28;20925;-77
2022/04/25 10:45:41;;;;;;;5.10;4.70;;;;;;;;;;5011665;28;20412;-76
2022/04/25 10:48:09;;;;;;;6.07;5.57;;;;;;;;;;5034229;28;20421;-74
2022/04/25 10:50:55;;;;;;;5.13;4.60;;;;;;;;;;5033884;28;20499;-74
2022/04/25 10:53:41;;;;;;;5.50;5.10;;;;;;;;;;5034062;28;20479;-74
2022/04/25 10:56:08;;;;;;;6.07;5.60;;;;;;;;;;5034138;28;20490;-73
2022/04/25 10:58:34;;;;;;;5.53;4.97;;;;;;;;;;5034145;28;20540;-74
2022/04/25 11:01:00;;;;;;;4.63;4.23;;;;;;;;;;5033517;28;20495;-75
2022/04/25 11:03:27;;;;;;;5.37;4.83;;;;;;;;;;5033933;28;20410;-75
2022/04/25 11:06:00;;;;;;;5.40;4.90;;;;;;;;;;5033815;28;20437;-74
2022/04/25 11:08:27;;;;;;;5.50;5.00;;;;;;;;;;5016389;28;20894;-75
2022/04/25 11:11:04;;;;;;;5.80;5.30;;;;;;;;;;5033498;28;20422;-76
2022/04/25 11:13:35;;;;;;;5.50;5.00;;;;;;;;;;5016129;28;20832;-74
2022/04/25 11:16:23;;;;;;;6.13;5.57;;;;;;;;;;5033737;28;20492;-73
2022/04/25 11:19:08;;;;;;;6.87;6.27;;;;;;;;;;5033706;28;20468;-74
2022/04/25 11:21:34;;;;;;;7.80;5.57;;;;;;;;;;5033292;28;20421;-73
2022/04/25 11:24:01;;;;;;;6.10;5.60;;;;;;;;;;5033523;28;20387;-75
2022/04/25 11:26:29;;;;;;;5.47;5.07;;;;;;;;;;5033515;28;20416;-75
2022/04/25 11:28:55;;;;;;;6.33;5.80;;;;;;;;;;5015973;28;20413;-75
2022/04/25 11:31:24;;;;;;;7.43;6.73;;;;;;;;;;5032957;28;20476;-75
2022/04/25 11:33:51;;;;;;;5.47;5.07;;;;;;;;;;5033674;28;20410;-73
2022/04/25 11:36:21;;;;;;;6.60;5.90;;;;;;;;;;5014574;28;20762;-74
2022/04/25 11:41:36;;;;;;;5.90;5.40;;;;;;;;;;5023756;28;20420;-76
2022/04/25 11:44:02;;;;;;;7.43;5.53;;;;;;;;;;5025324;28;20383;-75
2022/04/25 11:46:31;;;;;;;9.73;5.70;;;;;;;;;;5033263;28;20379;-75
2022/04/25 11:48:57;;;;;;;6.13;5.63;;;;;;;;;;5033219;28;20395;-75
2022/04/25 11:51:26;;;;;;;6.30;5.70;;;;;;;;;;5032447;28;20476;-75
2022/04/25 11:53:57;;;;;;;7.20;6.60;;;;;;;;;;5033508;28;20431;-74
2022/04/25 11:56:23;;;;;;;6.87;6.17;;;;;;;;;;5033364;28;20408;-75
2022/04/25 11:58:53;;;;;;;7.60;7.00;;;;;;;;;;5033379;28;20465;-75
2022/04/25 12:01:39;;;;;;;8.97;8.17;;;;;;;;;;5032694;28;20945;-76
2022/04/25 12:04:15;;;;;;;7.40;6.80;;;;;;;;;;5033103;28;20413;-74
2022/04/25 12:06:51;;;;;;;7.60;6.90;;;;;;;;;;5033133;28;20411;-77
2022/04/25 12:17:46;;;;;;;7.33;6.73;;;;;;;;;;5033037;28;20379;-75
2022/04/25 12:20:16;;;;;;;8.00;7.30;;;;;;;;;;5032874;28;20916;-74
2022/04/25 12:22:53;;;;;;;7.90;7.30;;;;;;;;;;5015529;28;20414;-75
2022/04/25 12:25:20;;;;;;;7.70;7.00;;;;;;;;;;5032904;28;20533;-75
2022/04/25 12:28:02;;;;;;;7.90;7.20;;;;;;;;;;5032634;28;20434;-76
2022/04/25 12:30:30;;;;;;;11.97;7.90;;;;;;;;;;5032623;28;20774;-76
2022/04/25 12:33:06;;;;;;;8.20;7.50;;;;;;;;;;5032655;28;20407;-75
2022/04/25 12:35:33;;;;;;;7.50;6.90;;;;;;;;;;5015264;28;20408;-74
2022/04/25 12:37:59;;;;;;;8.60;7.67;;;;;;;;;;5032635;28;20920;-74
2022/04/25 12:40:25;;;;;;;8.00;7.30;;;;;;;;;;5032485;28;20417;-77
2022/04/25 12:42:54;;;;;;;9.20;8.30;;;;;;;;;;5032695;28;20400;-74
2022/04/25 12:45:20;;;;;;;11.90;9.40;;;;;;;;;;5032763;28;20459;-77
2022/04/25 12:47:53;;;;;;;10.63;8.30;;;;;;;;;;5032414;28;20395;-76
2022/04/25 12:50:39;;;;;;;12.43;10.90;;;;;;;;;;5032360;28;20391;-74
2022/04/25 12:53:06;;;;;;;18.20;11.70;;;;;;;;;;5032843;28;20535;-78
2022/04/25 12:55:42;;;;;;;12.57;10.27;;;;;;;;;;5032781;28;20459;-75
2022/04/25 12:58:08;;;;;;;12.97;11.37;;;;;;;;;;5032451;28;20851;-75
2022/04/25 13:00:44;;;;;;;14.90;12.07;;;;;;;;;;5032281;28;20441;-77
2022/04/25 13:03:11;;;;;;;15.00;13.35;;;;;;;;;;5034495;28;20490;-75
2022/04/25 13:05:37;;;;;;;11.30;10.20;;;;;;;;;;5036190;28;20171;-77
2022/04/25 13:08:03;;;;;;;12.93;11.52;;;;;;;;;;5018429;28;20428;-76
2022/04/25 13:10:30;;;;;;;11.25;10.25;;;;;;;;;;5036032;28;20462;-78
2022/04/25 13:12:56;;;;;;;12.15;10.95;;;;;;;;;;5035941;28;20217;-79
2022/04/25 13:15:25;;;;;;;16.00;14.32;;;;;;;;;;5036167;28;20176;-77
2022/04/25 13:17:51;;;;;;;11.73;10.52;;;;;;;;;;5018930;28;20208;-79
2022/04/25 13:20:20;;;;;;;13.35;12.20;;;;;;;;;;5035594;28;20360;-78
2022/04/25 13:22:46;;;;;;;11.18;10.10;;;;;;;;;;5035960;28;20551;-77
2022/04/25 13:25:14;;;;;;;9.25;8.45;;;;;;;;;;5036000;28;20183;-78
2022/04/25 13:27:41;;;;;;;10.98;9.98;;;;;;;;;;5035930;28;20508;-78
2022/04/25 13:30:12;;;;;;;12.90;10.07;;;;;;;;;;5035710;28;20173;-79
2022/04/25 13:32:38;;;;;;;12.07;10.98;;;;;;;;;;5035787;28;20518;-76
2022/04/25 13:35:05;;;;;;;12.90;11.70;;;;;;;;;;5035710;28;20170;-77
2022/04/25 13:37:31;;;;;;;14.37;12.50;;;;;;;;;;5035579;28;20744;-76
2022/04/25 13:39:57;;;;;;;15.03;13.50;;;;;;;;;;5035390;28;20467;-76
2022/04/25 13:42:24;;;;;;;14.80;13.20;;;;;;;;;;5029173;28;20445;-77
2022/04/25 13:44:51;;;;;;;14.93;13.60;;;;;;;;;;5019667;28;20460;-76
2022/04/25 13:47:17;;;;;;;13.10;12.00;;;;;;;;;;4998039;28;20974;-75
2022/04/25 13:49:43;;;;;;;15.13;13.73;;;;;;;;;;5015621;28;20437;-77
2022/04/25 13:52:10;;;;;;;16.07;14.57;;;;;;;;;;4997671;28;20433;-77
2022/04/25 13:54:37;;;;;;;15.47;14.03;;;;;;;;;;5015435;28;20414;-73
2022/04/25 13:57:04;;;;;;;12.90;11.70;;;;;;;;;;5015504;28;20480;-75
2022/04/25 13:59:30;;;;;;;11.77;10.57;;;;;;;;;;5015609;28;20465;-75
2022/04/25 14:01:57;;;;;;;14.53;13.03;;;;;;;;;;5015040;28;20430;-74
2022/04/25 14:04:25;;;;;;;11.07;10.07;;;;;;;;;;5015173;28;20441;-74
2022/04/25 14:06:51;;;;;;;12.17;10.97;;;;;;;;;;5015210;28;20410;-77
2022/04/25 14:09:18;;;;;;;14.57;11.90;;;;;;;;;;4997998;28;20424;-74
2022/04/25 14:11:44;;;;;;;13.33;12.13;;;;;;;;;;5014527;28;20460;-75
2022/04/25 14:14:10;;;;;;;15.83;12.43;;;;;;;;;;5014181;28;20505;-75
2022/04/25 14:16:38;;;;;;;12.40;11.20;;;;;;;;;;5015129;28;20545;-77
2022/04/25 14:19:04;;;;;;;11.40;10.30;;;;;;;;;;4997410;28;20470;-75
2022/04/25 14:21:30;;;;;;;11.27;10.37;;;;;;;;;;4997205;28;20488;-75
2022/04/25 14:23:56;;;;;;;11.23;9.90;;;;;;;;;;5014978;28;20498;-76
2022/04/25 14:26:22;;;;;;;9.70;8.90;;;;;;;;;;5014921;28;20415;-73
2022/04/25 14:28:51;;;;;;;10.70;9.73;;;;;;;;;;5015011;28;20464;-74
2022/04/25 14:31:19;;;;;;;10.23;8.70;;;;;;;;;;4996875;28;20502;-74
2022/04/25 14:33:45;;;;;;;11.13;10.00;;;;;;;;;;5014955;28;20472;-75
2022/04/25 14:36:11;;;;;;;9.30;8.50;;;;;;;;;;5014882;28;20419;-75
2022/04/25 14:38:37;;;;;;;9.03;8.23;;;;;;;;;;5014183;28;20476;-73
2022/04/25 14:41:03;;;;;;;8.00;7.30;;;;;;;;;;4996700;28;20430;-75
2022/04/25 14:43:30;;;;;;;6.90;6.23;;;;;;;;;;5015708;28;20504;-74
2022/04/25 14:45:57;;;;;;;6.57;6.00;;;;;;;;;;5014677;28;20411;-73
2022/04/25 14:48:23;;;;;;;5.57;5.07;;;;;;;;;;4997282;28;20410;-75
2022/04/25 14:56:18;;;;;;;5.83;5.33;;;;;;;;;;5034555;28;20421;-76
2022/04/25 14:58:44;;;;;;;6.97;6.37;;;;;;;;;;5034070;28;20432;-72
2022/04/25 15:01:10;;;;;;;7.13;6.53;;;;;;;;;;5033556;28;20424;-76
2022/04/25 15:03:35;;;;;;;8.37;7.63;;;;;;;;;;5012663;28;20429;-76
2022/04/25 15:06:02;;;;;;;7.83;7.23;;;;;;;;;;5004439;28;20457;-73
2022/04/25 15:08:28;;;;;;;8.93;8.03;;;;;;;;;;5014688;28;20431;-75
2022/04/25 15:10:54;;;;;;;8.00;7.30;;;;;;;;;;5011338;28;20455;-74
2022/04/25 15:13:20;;;;;;;7.10;6.47;;;;;;;;;;5012730;28;20836;-73